Time;durP1;ratioP1;P1;durP2;ratioP2;P2;SDS_P1;SDS_P2;PMS_P1;PMS_P2;Temp;Humidity;BMP_temperature;BMP_pressure;BME280_temperature;BME280_humidity;BME280_pressure;Samples;Min_cycle;Max_cycle;Signal;HPM_P1;HPM_P2
2023/01/23 00:01:25;;;;;;;7.20;3.17;;;3.20;99.90;;;;;;5055678;28;20037;-69
2023/01/23 00:03:52;;;;;;;10.13;3.20;;;3.20;99.90;;;;;;5032455;28;20244;-69
2023/01/23 00:06:17;;;;;;;7.35;2.80;;;3.20;99.90;;;;;;5059118;28;20044;-69
2023/01/23 00:08:44;;;;;;;8.13;2.37;;;3.10;99.90;;;;;;5037611;28;20502;-69
2023/01/23 00:11:15;;;;;;;9.60;3.20;;;3.20;99.90;;;;;;5053750;28;20033;-69
2023/01/23 00:13:41;;;;;;;4.15;2.33;;;3.20;99.90;;;;;;5044487;28;20075;-69
2023/01/23 00:16:10;;;;;;;6.10;2.92;;;3.20;99.90;;;;;;5061392;28;20434;-69
2023/01/23 00:18:36;;;;;;;4.95;2.58;;;3.20;99.90;;;;;;5052114;28;20053;-69
2023/01/23 00:21:06;;;;;;;5.90;2.67;;;3.20;99.90;;;;;;5052841;28;20582;-69
2023/01/23 00:23:32;;;;;;;6.90;2.78;;;3.20;99.90;;;;;;5039839;28;20036;-69
2023/01/23 00:26:07;;;;;;;5.38;2.38;;;3.20;99.90;;;;;;5064839;28;20309;-69
2023/01/23 00:28:33;;;;;;;8.07;3.10;;;3.20;99.90;;;;;;5064383;28;20075;-69
2023/01/23 00:31:03;;;;;;;6.78;2.97;;;3.20;99.90;;;;;;5030989;28;20036;-69
2023/01/23 00:33:29;;;;;;;5.57;2.78;;;3.20;99.90;;;;;;5041061;28;20079;-69
2023/01/23 00:35:55;;;;;;;5.87;2.53;;;3.20;99.90;;;;;;5065727;28;20075;-69
2023/01/23 00:38:20;;;;;;;4.10;2.00;;;3.20;99.90;;;;;;5044816;28;20104;-69
2023/01/23 00:40:46;;;;;;;8.50;2.90;;;3.20;99.90;;;;;;5053738;28;20039;-70
2023/01/23 00:43:11;;;;;;;5.60;2.70;;;3.20;99.90;;;;;;5063470;28;20120;-70
2023/01/23 00:45:37;;;;;;;5.23;2.37;;;3.20;99.90;;;;;;5053834;28;20056;-70
2023/01/23 00:48:03;;;;;;;8.03;3.13;;;3.20;99.90;;;;;;5027669;28;20040;-70
2023/01/23 00:50:29;;;;;;;8.88;2.97;;;3.20;99.90;;;;;;5058315;28;20040;-70
2023/01/23 00:52:54;;;;;;;8.50;3.30;;;3.20;99.90;;;;;;5054747;28;20048;-70
2023/01/23 00:55:20;;;;;;;5.30;2.60;;;3.20;99.90;;;;;;5065573;28;20086;-70
2023/01/23 00:57:46;;;;;;;5.60;3.00;;;3.20;99.90;;;;;;5040584;28;20036;-70
2023/01/23 01:00:12;;;;;;;5.53;2.40;;;3.20;99.90;;;;;;5059467;28;20876;-69
2023/01/23 01:02:37;;;;;;;5.13;3.05;;;3.20;99.90;;;;;;5038061;28;20087;-70
2023/01/23 01:05:03;;;;;;;7.80;2.77;;;3.30;99.90;;;;;;5041030;28;20049;-70
2023/01/23 01:07:29;;;;;;;9.30;2.60;;;3.20;99.90;;;;;;5036412;28;20570;-69
2023/01/23 01:09:54;;;;;;;7.07;3.67;;;3.20;99.90;;;;;;5054785;28;20043;-70
2023/01/23 01:12:20;;;;;;;6.90;3.00;;;3.20;99.90;;;;;;5055751;28;20032;-69
2023/01/23 01:14:45;;;;;;;8.83;2.77;;;3.20;99.90;;;;;;5056207;28;20040;-70
2023/01/23 01:17:11;;;;;;;5.73;3.00;;;3.20;99.90;;;;;;5052932;28;20043;-69
2023/01/23 01:19:37;;;;;;;6.63;2.73;;;3.20;99.90;;;;;;5053954;28;20048;-70
2023/01/23 01:22:02;;;;;;;6.47;2.50;;;3.20;99.90;;;;;;5064073;28;20097;-70
2023/01/23 01:24:28;;;;;;;4.23;2.27;;;3.20;99.90;;;;;;5065391;28;20043;-69
2023/01/23 01:26:54;;;;;;;9.27;3.43;;;3.20;99.90;;;;;;5060637;28;20040;-70
2023/01/23 01:29:19;;;;;;;5.03;2.87;;;3.20;99.90;;;;;;5044231;28;20421;-70
2023/01/23 01:31:45;;;;;;;5.23;3.03;;;3.20;99.90;;;;;;5056930;28;20029;-70
2023/01/23 01:34:11;;;;;;;6.47;2.60;;;3.20;99.90;;;;;;5064415;28;20036;-69
2023/01/23 01:36:37;;;;;;;7.75;3.00;;;3.20;99.90;;;;;;5062018;28;20052;-69
2023/01/23 01:39:03;;;;;;;6.53;2.50;;;3.20;99.90;;;;;;5058564;28;20041;-70
2023/01/23 01:41:29;;;;;;;10.00;3.00;;;3.20;99.90;;;;;;5055176;28;20035;-70
2023/01/23 01:43:56;;;;;;;;;;;3.20;99.90;;;;;;5046115;28;20048;-70
2023/01/23 01:46:31;;;;;;;6.45;2.53;;;3.20;99.90;;;;;;5037396;28;19970;-69
2023/01/23 01:49:03;;;;;;;10.80;3.20;;;3.20;99.90;;;;;;5055930;28;20158;-69
2023/01/23 01:51:37;;;;;;;6.07;3.50;;;3.20;99.90;;;;;;5061181;28;20048;-69
2023/01/23 01:54:05;;;;;;;9.55;3.22;;;3.20;99.90;;;;;;5040347;28;20080;-69
2023/01/23 01:56:40;;;;;;;8.52;4.30;;;3.20;99.90;;;;;;5044820;28;20052;-69
2023/01/23 01:59:07;;;;;;;10.65;3.42;;;3.20;99.90;;;;;;5057509;28;20113;-70
2023/01/23 02:01:33;;;;;;;7.53;3.25;;;3.10;99.90;;;;;;5061133;28;20042;-69
2023/01/23 02:04:00;;;;;;;9.23;3.28;;;3.10;99.90;;;;;;5038570;28;20458;-69
2023/01/23 02:06:26;;;;;;;5.55;2.72;;;3.20;99.90;;;;;;5040984;28;20041;-70
2023/01/23 02:09:02;;;;;;;9.37;3.20;;;3.10;99.90;;;;;;5059912;28;20106;-70
2023/01/23 02:11:28;;;;;;;5.15;2.65;;;3.10;99.90;;;;;;5055963;28;20123;-69
2023/01/23 02:13:55;;;;;;;7.90;3.78;;;3.20;99.90;;;;;;5036656;28;20122;-69
2023/01/23 02:16:27;;;;;;;9.00;3.10;;;3.10;99.90;;;;;;5038410;28;20147;-70
2023/01/23 02:18:59;;;;;;;9.63;3.10;;;3.10;99.90;;;;;;5058179;28;20037;-70
2023/01/23 02:21:25;;;;;;;5.45;2.95;;;3.10;99.90;;;;;;5057315;28;20116;-70
2023/01/23 02:24:10;;;;;;;7.22;3.20;;;3.10;99.90;;;;;;5063295;28;20033;-69
2023/01/23 02:26:42;;;;;;;7.13;3.22;;;3.10;99.90;;;;;;5044638;28;20398;-69
2023/01/23 02:29:09;;;;;;;6.00;2.47;;;3.10;99.90;;;;;;5060139;28;20036;-69
2023/01/23 02:31:36;;;;;;;7.22;3.83;;;3.10;99.90;;;;;;5045895;28;20051;-69
2023/01/23 02:34:03;;;;;;;7.40;3.50;;;3.10;99.90;;;;;;5049496;28;20528;-69
2023/01/23 02:36:32;;;;;;;10.57;2.97;;;3.10;99.90;;;;;;5053009;28;20037;-69
2023/01/23 02:39:03;;;;;;;6.10;3.17;;;3.10;99.90;;;;;;5059386;28;20151;-69
2023/01/23 02:41:32;;;;;;;4.10;2.42;;;3.10;99.90;;;;;;5039214;28;20040;-69
2023/01/23 02:44:02;;;;;;;10.43;3.42;;;3.10;99.90;;;;;;5059589;28;20037;-69
2023/01/23 02:46:28;;;;;;;7.50;3.40;;;3.10;99.90;;;;;;5041537;28;20040;-69
2023/01/23 02:48:53;;;;;;;11.27;3.88;;;3.10;99.90;;;;;;5059535;28;20043;-69
2023/01/23 02:51:20;;;;;;;8.10;3.13;;;3.10;99.90;;;;;;5062131;28;20041;-69
2023/01/23 02:53:46;;;;;;;7.68;2.83;;;3.10;99.90;;;;;;5042245;28;20048;-69
2023/01/23 02:56:12;;;;;;;5.18;2.65;;;3.10;99.90;;;;;;5060425;28;20486;-69
2023/01/23 03:01:24;;;;;;;7.35;3.13;;;3.10;99.90;;;;;;5059943;28;20040;-69
2023/01/23 03:03:52;;;;;;;7.53;3.03;;;3.10;99.90;;;;;;5058684;28;20058;-69
2023/01/23 03:06:19;;;;;;;8.18;3.40;;;3.10;99.90;;;;;;5051675;28;20045;-69
2023/01/23 03:08:48;;;;;;;8.70;3.78;;;3.10;99.90;;;;;;5023154;28;20337;-69
2023/01/23 03:11:16;;;;;;;4.75;2.92;;;3.10;99.90;;;;;;5054729;28;20036;-69
2023/01/23 03:13:43;;;;;;;6.72;3.05;;;3.10;99.90;;;;;;5059503;28;20048;-69
2023/01/23 03:16:09;;;;;;;14.90;3.58;;;3.10;99.90;;;;;;5041084;28;20386;-69
2023/01/23 03:18:35;;;;;;;6.33;2.23;;;3.10;99.90;;;;;;5059932;28;20091;-69
2023/01/23 03:21:05;;;;;;;7.20;3.20;;;3.10;99.90;;;;;;5061570;28;20144;-69
2023/01/23 03:23:31;;;;;;;6.05;3.10;;;3.10;99.90;;;;;;5035227;28;20037;-69
2023/01/23 03:25:59;;;;;;;6.30;2.60;;;3.10;99.90;;;;;;5061043;28;20472;-69
2023/01/23 03:31:11;;;;;;;6.93;2.58;;;3.00;99.90;;;;;;5028145;28;20037;-69
2023/01/23 03:33:38;;;;;;;6.13;2.92;;;3.10;99.90;;;;;;5037776;28;21565;-69
2023/01/23 03:36:04;;;;;;;;;;;3.00;99.90;;;;;;5041655;28;20430;-70
2023/01/23 03:38:30;;;;;;;6.35;2.92;;;3.10;99.90;;;;;;5052665;28;19993;-69
2023/01/23 03:43:40;;;;;;;5.95;3.08;;;3.10;99.90;;;;;;5036313;28;20398;-70
2023/01/23 03:46:08;;;;;;;7.70;3.13;;;3.00;99.90;;;;;;5056999;28;20036;-68
2023/01/23 03:48:37;;;;;;;6.75;3.33;;;3.10;99.90;;;;;;5053802;28;20040;-68
2023/01/23 03:51:03;;;;;;;7.05;2.90;;;3.00;99.90;;;;;;5064877;28;20098;-68
2023/01/23 03:53:28;;;;;;;7.53;3.90;;;3.00;99.90;;;;;;5052398;28;20044;-68
2023/01/23 03:55:54;;;;;;;11.07;3.50;;;3.10;99.90;;;;;;5057815;28;20045;-68
2023/01/23 03:58:19;;;;;;;9.23;3.10;;;3.00;99.90;;;;;;5061931;28;20048;-68
2023/01/23 04:00:45;;;;;;;6.97;3.30;;;3.00;99.90;;;;;;5022717;28;1083907;-68
2023/01/23 04:03:10;;;;;;;8.20;3.07;;;3.00;99.90;;;;;;5065717;28;20098;-68
2023/01/23 04:05:36;;;;;;;6.30;3.67;;;3.00;99.90;;;;;;5040663;28;20045;-68
2023/01/23 04:08:02;;;;;;;8.80;2.97;;;3.00;99.90;;;;;;5064153;28;20497;-67
2023/01/23 04:10:28;;;;;;;16.02;3.97;;;3.00;99.90;;;;;;5056764;28;20468;-68
2023/01/23 04:12:54;;;;;;;10.37;3.40;;;3.00;99.90;;;;;;5059541;28;20110;-68
2023/01/23 04:15:20;;;;;;;5.67;3.17;;;3.00;99.90;;;;;;5038764;28;20041;-68
2023/01/23 04:17:45;;;;;;;9.95;3.13;;;3.00;99.90;;;;;;5060163;28;20044;-68
2023/01/23 04:20:12;;;;;;;9.03;3.57;;;2.90;99.90;;;;;;5056092;28;20391;-68
2023/01/23 04:22:38;;;;;;;8.32;3.42;;;2.90;99.90;;;;;;5037442;28;20115;-68
2023/01/23 04:25:04;;;;;;;8.35;3.28;;;2.90;99.90;;;;;;5054713;28;20167;-68
2023/01/23 04:27:30;;;;;;;;;;;3.00;99.90;;;;;;5058112;28;20478;-68
2023/01/23 04:29:57;;;;;;;6.07;3.03;;;2.90;99.90;;;;;;5064181;28;19961;-68
2023/01/23 04:32:23;;;;;;;8.05;4.10;;;2.90;99.90;;;;;;5057389;28;20040;-68
2023/01/23 04:34:49;;;;;;;9.30;3.33;;;2.90;99.90;;;;;;5048102;28;20083;-67
2023/01/23 04:37:15;;;;;;;7.83;3.10;;;2.90;99.90;;;;;;5037931;28;20063;-68
2023/01/23 04:39:41;;;;;;;9.60;3.60;;;2.90;99.90;;;;;;5054952;28;20052;-68
2023/01/23 04:42:07;;;;;;;9.25;3.13;;;2.90;99.90;;;;;;5038586;28;20441;-68
2023/01/23 04:44:33;;;;;;;6.15;3.25;;;2.90;99.90;;;;;;5060190;28;20191;-68
2023/01/23 04:46:59;;;;;;;5.83;2.63;;;2.90;99.90;;;;;;5060145;28;20115;-68
2023/01/23 04:49:25;;;;;;;6.18;3.30;;;3.00;99.90;;;;;;5062230;28;20055;-68
2023/01/23 04:51:52;;;;;;;6.53;2.83;;;2.90;99.90;;;;;;5058640;28;20048;-68
2023/01/23 04:54:18;;;;;;;;;;;2.90;99.90;;;;;;5060668;28;20483;-68
2023/01/23 04:56:44;;;;;;;6.88;3.25;;;2.90;99.90;;;;;;5057977;28;19924;-68
2023/01/23 04:59:10;;;;;;;10.32;3.20;;;2.90;99.90;;;;;;5062219;28;20046;-68
2023/01/23 05:01:36;;;;;;;6.83;3.27;;;2.90;99.90;;;;;;5058399;28;20044;-68
2023/01/23 05:04:01;;;;;;;6.33;3.43;;;2.90;99.90;;;;;;5055350;28;20040;-68
2023/01/23 05:06:27;;;;;;;7.13;2.97;;;2.90;99.90;;;;;;5059350;28;20355;-68
2023/01/23 05:08:53;;;;;;;9.27;3.30;;;2.90;99.90;;;;;;5060022;28;20086;-68
2023/01/23 05:11:18;;;;;;;7.60;3.40;;;2.90;99.90;;;;;;5040689;28;20071;-68
2023/01/23 05:13:44;;;;;;;8.50;3.50;;;2.90;99.90;;;;;;5042865;28;20139;-68
2023/01/23 05:16:10;;;;;;;9.10;3.40;;;3.00;99.90;;;;;;5057671;28;20045;-68
2023/01/23 05:18:35;;;;;;;9.20;3.53;;;2.90;99.90;;;;;;5064739;28;20082;-68
2023/01/23 05:21:01;;;;;;;10.23;3.93;;;3.00;99.90;;;;;;5051413;28;20068;-68
2023/01/23 05:23:27;;;;;;;7.35;3.85;;;2.90;99.90;;;;;;5040760;28;20417;-67
2023/01/23 05:25:52;;;;;;;9.67;3.67;;;2.90;99.90;;;;;;5057771;28;20486;-67
2023/01/23 05:28:18;;;;;;;13.27;4.17;;;2.90;99.90;;;;;;5056445;28;20037;-68
2023/01/23 05:30:44;;;;;;;8.45;4.50;;;2.90;99.90;;;;;;5054751;28;20043;-68
2023/01/23 05:33:10;;;;;;;8.10;3.73;;;2.90;99.90;;;;;;5060512;28;20106;-68
2023/01/23 05:35:38;;;;;;;6.67;3.53;;;2.90;99.90;;;;;;5059408;28;20525;-68
2023/01/23 05:38:04;;;;;;;7.90;3.95;;;2.90;99.90;;;;;;5041177;28;20036;-68
2023/01/23 05:40:30;;;;;;;14.35;4.20;;;2.90;99.90;;;;;;5058040;28;20032;-68
2023/01/23 05:42:55;;;;;;;9.43;3.60;;;2.90;99.90;;;;;;5053349;28;20059;-68
2023/01/23 05:45:21;;;;;;;7.17;3.63;;;2.90;99.90;;;;;;5054386;28;20401;-68
2023/01/23 05:47:47;;;;;;;7.90;3.00;;;2.90;99.90;;;;;;5057054;28;20382;-68
2023/01/23 05:50:15;;;;;;;9.02;3.90;;;2.90;99.90;;;;;;5059716;28;20529;-68
2023/01/23 05:52:40;;;;;;;9.00;4.03;;;2.90;99.90;;;;;;5067957;28;20510;-68
2023/01/23 05:55:06;;;;;;;7.77;3.73;;;3.00;99.90;;;;;;5060103;28;20126;-68
2023/01/23 05:57:33;;;;;;;10.30;3.97;;;2.90;99.90;;;;;;5062334;28;20131;-68
2023/01/23 05:59:58;;;;;;;6.68;3.92;;;2.90;99.90;;;;;;5054221;28;20828;-68
2023/01/23 06:02:24;;;;;;;6.27;3.37;;;2.90;99.90;;;;;;5055972;28;20032;-68
2023/01/23 06:04:50;;;;;;;8.00;4.07;;;2.90;99.90;;;;;;5046074;28;20044;-68
2023/01/23 06:07:17;;;;;;;8.87;3.70;;;2.90;99.90;;;;;;5057495;28;20109;-68
2023/01/23 06:09:43;;;;;;;10.35;3.75;;;2.90;99.90;;;;;;5033182;28;20048;-68
2023/01/23 06:12:10;;;;;;;7.80;3.95;;;2.90;99.90;;;;;;5047526;28;20049;-67
2023/01/23 06:14:36;;;;;;;5.90;3.35;;;2.90;99.90;;;;;;5060313;28;20047;-68
2023/01/23 06:17:01;;;;;;;8.15;3.80;;;2.90;99.90;;;;;;5056579;28;20040;-68
2023/01/23 06:19:27;;;;;;;9.33;3.73;;;2.90;99.90;;;;;;5052433;28;20816;-68
2023/01/23 06:21:53;;;;;;;7.77;3.77;;;2.90;99.90;;;;;;5044181;28;20082;-68
2023/01/23 06:24:18;;;;;;;11.67;3.83;;;2.90;99.90;;;;;;5062741;28;20102;-68
2023/01/23 06:26:44;;;;;;;6.83;3.73;;;2.90;99.90;;;;;;5038720;28;20044;-68
2023/01/23 06:29:10;;;;;;;9.15;3.45;;;2.90;99.90;;;;;;5034712;28;20059;-72
2023/01/23 06:31:35;;;;;;;7.83;4.20;;;2.90;99.90;;;;;;5051422;28;20062;-68
2023/01/23 06:34:02;;;;;;;6.70;3.70;;;2.90;99.90;;;;;;5059830;28;20110;-68
2023/01/23 06:36:27;;;;;;;10.77;4.00;;;2.90;99.90;;;;;;5059999;28;20036;-68
2023/01/23 06:38:53;;;;;;;8.33;3.57;;;2.90;99.90;;;;;;5040590;28;20094;-68
2023/01/23 06:41:19;;;;;;;7.57;3.50;;;2.90;99.90;;;;;;5055452;28;20123;-68
2023/01/23 06:43:44;;;;;;;7.73;4.37;;;2.90;99.90;;;;;;5054526;28;20573;-68
2023/01/23 06:46:11;;;;;;;8.37;4.07;;;2.90;99.90;;;;;;5038160;28;20500;-68
2023/01/23 06:48:37;;;;;;;9.50;3.65;;;2.90;99.90;;;;;;5047744;28;20045;-68
2023/01/23 06:51:03;;;;;;;8.27;4.15;;;2.90;99.90;;;;;;5027376;28;20067;-69
2023/01/23 06:53:30;;;;;;;9.27;4.38;;;2.90;99.90;;;;;;5040303;28;20572;-68
2023/01/23 06:56:04;;;;;;;8.05;4.40;;;2.90;99.90;;;;;;5062920;28;20391;-68
2023/01/23 06:58:30;;;;;;;8.43;3.75;;;2.90;99.90;;;;;;5038224;28;20528;-70
2023/01/23 07:03:23;;;;;;;8.48;4.32;;;2.90;99.90;;;;;;5057227;28;20129;-68
2023/01/23 07:05:49;;;;;;;8.73;4.07;;;2.90;99.90;;;;;;5047456;28;20321;-68
2023/01/23 07:08:15;;;;;;;9.95;4.18;;;2.90;99.90;;;;;;5032611;28;20128;-69
2023/01/23 07:10:41;;;;;;;8.52;4.97;;;2.90;99.90;;;;;;5044127;28;20052;-66
2023/01/23 07:13:09;;;;;;;11.67;4.43;;;2.90;99.90;;;;;;5047885;28;20033;-67
2023/01/23 07:15:35;;;;;;;9.88;4.63;;;2.90;99.90;;;;;;5049575;28;20085;-67
2023/01/23 07:18:01;;;;;;;9.35;4.50;;;2.90;99.90;;;;;;5047667;28;20124;-67
2023/01/23 07:20:27;;;;;;;9.88;4.68;;;2.90;99.90;;;;;;5023911;28;20040;-66
2023/01/23 07:22:54;;;;;;;11.97;4.93;;;2.90;99.90;;;;;;5034304;28;20091;-67
2023/01/23 07:25:20;;;;;;;;;;;2.90;99.90;;;;;;5010355;28;20095;-66
2023/01/23 07:27:46;;;;;;;12.60;4.03;;;2.90;99.90;;;;;;5047889;28;19931;-67
2023/01/23 07:30:12;;;;;;;11.33;5.20;;;2.90;99.90;;;;;;5051332;28;20497;-67
2023/01/23 07:32:38;;;;;;;12.85;4.20;;;2.90;99.90;;;;;;5035031;28;20278;-67
2023/01/23 07:35:04;;;;;;;9.80;5.10;;;2.90;99.90;;;;;;5029184;28;20048;-66
2023/01/23 07:37:29;;;;;;;10.10;5.13;;;2.90;99.90;;;;;;5047046;28;20103;-67
2023/01/23 07:39:55;;;;;;;10.27;5.07;;;2.90;99.90;;;;;;5027198;28;20053;-66
2023/01/23 07:42:21;;;;;;;9.90;4.70;;;2.90;99.90;;;;;;5045650;28;20311;-67
2023/01/23 07:44:46;;;;;;;18.27;4.87;;;2.90;99.90;;;;;;5041254;28;20045;-66
2023/01/23 07:47:12;;;;;;;11.10;4.87;;;2.90;99.90;;;;;;5043101;28;20033;-66
2023/01/23 07:49:37;;;;;;;12.33;5.53;;;2.90;99.90;;;;;;5050153;28;20045;-66
2023/01/23 07:52:04;;;;;;;11.47;4.53;;;2.90;99.90;;;;;;5036695;28;20364;-67
2023/01/23 07:54:29;;;;;;;10.60;4.85;;;2.90;99.90;;;;;;5042973;28;20029;-68
2023/01/23 07:56:55;;;;;;;8.57;4.43;;;2.90;99.90;;;;;;5047613;28;20044;-67
2023/01/23 07:59:21;;;;;;;9.00;4.67;;;3.00;99.90;;;;;;5047122;28;20275;-67
2023/01/23 08:01:48;;;;;;;13.07;4.73;;;2.90;99.90;;;;;;5038113;28;20525;-67
2023/01/23 08:04:14;;;;;;;9.98;4.78;;;3.00;99.90;;;;;;5047697;28;20037;-67
2023/01/23 08:06:39;;;;;;;12.73;4.37;;;2.90;99.90;;;;;;5049665;28;20052;-67
2023/01/23 08:09:05;;;;;;;9.27;4.33;;;3.00;99.90;;;;;;5021836;28;20206;-67
2023/01/23 08:11:31;;;;;;;11.15;4.60;;;3.00;99.90;;;;;;5039826;28;20072;-68
2023/01/23 08:13:56;;;;;;;10.83;5.33;;;3.00;99.90;;;;;;5047077;28;20059;-67
2023/01/23 08:16:22;;;;;;;9.27;4.77;;;3.00;99.90;;;;;;5049985;28;20125;-67
2023/01/23 08:18:48;;;;;;;11.30;5.20;;;3.00;99.90;;;;;;5054527;28;20758;-67
2023/01/23 08:21:13;;;;;;;9.17;4.97;;;3.00;99.90;;;;;;5047106;28;20124;-67
2023/01/23 08:23:40;;;;;;;13.17;5.60;;;3.00;99.90;;;;;;5044206;28;20057;-67
2023/01/23 08:26:07;;;;;;;9.07;4.70;;;3.00;99.90;;;;;;5031258;28;20036;-67
2023/01/23 08:28:33;;;;;;;11.18;5.28;;;3.00;99.90;;;;;;5045309;28;20107;-67
2023/01/23 08:31:00;;;;;;;13.40;6.07;;;3.00;99.90;;;;;;5045947;28;20398;-67
2023/01/23 08:33:26;;;;;;;10.30;5.07;;;3.10;99.90;;;;;;5054408;28;20331;-67
2023/01/23 08:35:54;;;;;;;9.43;5.00;;;3.10;99.90;;;;;;5030088;28;20053;-67
2023/01/23 08:38:20;;;;;;;10.65;4.82;;;3.10;99.90;;;;;;5042758;28;20749;-67
2023/01/23 08:40:47;;;;;;;8.65;5.05;;;3.10;99.90;;;;;;5045489;28;20093;-67
2023/01/23 08:43:13;;;;;;;8.75;4.53;;;3.10;99.90;;;;;;5021020;28;23501;-68
2023/01/23 08:45:40;;;;;;;11.13;4.50;;;3.10;99.90;;;;;;5025774;28;20045;-67
2023/01/23 08:48:07;;;;;;;10.52;5.15;;;3.10;99.90;;;;;;5030243;28;20069;-67
2023/01/23 08:50:32;;;;;;;;;;;3.10;99.90;;;;;;5048182;28;20086;-66
2023/01/23 08:52:58;;;;;;;11.02;4.70;;;3.20;99.90;;;;;;5031114;28;20306;-67
2023/01/23 08:55:24;;;;;;;7.93;4.30;;;3.20;99.90;;;;;;5050579;28;20045;-67
2023/01/23 08:57:52;;;;;;;11.37;5.37;;;3.10;99.90;;;;;;5049556;28;20037;-67
2023/01/23 09:00:19;;;;;;;8.23;4.57;;;3.20;99.90;;;;;;5040473;28;20063;-69
2023/01/23 09:02:44;;;;;;;;;;;3.20;99.90;;;;;;5045910;28;20037;-69
2023/01/23 09:05:10;;;;;;;11.48;4.82;;;3.20;99.90;;;;;;5042050;28;21957;-67
2023/01/23 09:07:36;;;;;;;17.20;4.90;;;3.20;99.90;;;;;;5046519;28;20442;-67
2023/01/23 09:10:04;;;;;;;10.10;5.80;;;3.30;99.90;;;;;;5043640;28;20049;-67
2023/01/23 09:12:31;;;;;;;12.55;5.35;;;3.30;99.90;;;;;;5048180;28;20094;-66
2023/01/23 09:14:57;;;;;;;10.75;5.32;;;3.30;99.90;;;;;;5020888;28;20064;-67
2023/01/23 09:17:23;;;;;;;9.02;5.22;;;3.30;99.90;;;;;;5039128;28;20037;-67
2023/01/23 09:19:49;;;;;;;8.75;4.32;;;3.30;99.90;;;;;;5051998;28;20485;-67
2023/01/23 09:22:16;;;;;;;8.47;4.57;;;3.30;99.90;;;;;;5026488;28;20048;-67
2023/01/23 09:24:41;;;;;;;8.55;4.88;;;3.30;99.90;;;;;;5050736;28;20517;-67
2023/01/23 09:27:08;;;;;;;10.83;4.33;;;3.30;99.90;;;;;;5047014;28;20036;-67
2023/01/23 09:29:34;;;;;;;10.02;4.43;;;3.30;99.90;;;;;;5039499;28;20574;-67
2023/01/23 09:32:00;;;;;;;7.50;4.15;;;3.40;99.90;;;;;;5037557;28;20060;-67
2023/01/23 09:34:27;;;;;;;12.32;4.65;;;3.30;99.90;;;;;;5043140;28;20406;-66
2023/01/23 09:36:52;;;;;;;8.45;4.45;;;3.40;99.90;;;;;;5042041;28;20044;-67
2023/01/23 09:39:19;;;;;;;9.73;4.30;;;3.40;99.90;;;;;;5040755;28;20053;-66
2023/01/23 09:41:46;;;;;;;;;;;3.40;99.90;;;;;;5042506;28;20045;-67
2023/01/23 09:44:34;;;;;;;9.07;4.05;;;3.40;99.90;;;;;;5042829;28;19947;-67
2023/01/23 09:47:22;;;;;;;9.63;4.75;;;3.40;99.90;;;;;;5034929;28;20479;-67
2023/01/23 09:49:57;;;;;;;8.82;4.70;;;3.50;99.90;;;;;;5041679;28;20139;-66
2023/01/23 09:52:33;;;;;;;9.52;3.90;;;3.40;99.90;;;;;;5044010;28;20102;-67
2023/01/23 09:55:12;;;;;;;9.13;4.40;;;3.50;99.90;;;;;;5042603;28;20045;-67
2023/01/23 09:57:51;;;;;;;9.32;4.68;;;3.50;99.90;;;;;;5039289;28;20473;-67
2023/01/23 10:00:30;;;;;;;6.55;3.80;;;3.50;99.90;;;;;;5029180;28;21080;-67
2023/01/23 10:02:59;;;;;;;11.48;4.63;;;3.50;99.90;;;;;;5039061;28;20043;-67
2023/01/23 10:05:35;;;;;;;7.85;4.30;;;3.60;99.90;;;;;;5026152;28;20401;-67
2023/01/23 10:08:20;;;;;;;6.60;3.75;;;3.60;99.90;;;;;;5019525;28;20045;-67
2023/01/23 10:11:07;;;;;;;5.50;3.10;;;3.60;99.90;;;;;;5031469;28;20059;-68
2023/01/23 10:13:49;;;;;;;8.07;4.03;;;3.60;99.90;;;;;;5040186;28;20083;-67
2023/01/23 10:16:18;;;;;;;9.43;4.03;;;3.70;99.90;;;;;;5047783;28;20041;-68
2023/01/23 10:19:07;;;;;;;8.77;3.75;;;3.70;99.90;;;;;;5039771;28;20048;-70
2023/01/23 10:21:36;;;;;;;8.15;4.25;;;3.70;99.90;;;;;;5030743;28;20048;-67
2023/01/23 10:24:26;;;;;;;7.53;3.92;;;3.70;99.90;;;;;;5048215;28;20477;-67
2023/01/23 10:26:57;;;;;;;8.23;4.18;;;3.80;99.90;;;;;;5044387;28;20056;-67
2023/01/23 10:29:37;;;;;;;7.68;4.00;;;3.90;99.90;;;;;;5041205;28;20087;-68
2023/01/23 10:32:05;;;;;;;8.07;3.53;;;3.80;99.90;;;;;;5042092;28;20041;-67
2023/01/23 10:34:46;;;;;;;7.85;4.00;;;3.90;99.90;;;;;;5037672;28;20509;-68
2023/01/23 10:37:31;;;;;;;5.82;3.83;;;3.90;99.90;;;;;;5047469;28;20036;-67
2023/01/23 10:40:03;;;;;;;5.55;3.17;;;4.00;99.90;;;;;;5045281;28;20549;-67
2023/01/23 10:42:30;;;;;;;7.60;3.15;;;4.00;99.90;;;;;;5048186;28;20032;-68
2023/01/23 10:44:55;;;;;;;8.30;3.80;;;4.00;99.90;;;;;;5044939;28;20039;-67
2023/01/23 10:47:40;;;;;;;6.43;2.93;;;4.00;99.90;;;;;;5038019;28;20767;-67
2023/01/23 10:50:06;;;;;;;6.43;2.80;;;4.10;99.90;;;;;;5049304;28;20067;-67
2023/01/23 10:52:43;;;;;;;5.88;3.10;;;4.10;99.90;;;;;;5048757;28;20047;-67
2023/01/23 10:55:29;;;;;;;5.32;2.90;;;4.20;99.90;;;;;;5049095;28;20449;-67
2023/01/23 10:58:01;;;;;;;8.20;3.28;;;4.20;99.90;;;;;;5034587;28;20055;-67
2023/01/23 11:00:43;;;;;;;7.53;3.33;;;4.30;99.90;;;;;;5019068;28;20438;-67
2023/01/23 11:03:20;;;;;;;6.20;3.30;;;4.30;99.90;;;;;;5046904;28;20037;-67
2023/01/23 11:05:55;;;;;;;5.47;3.08;;;4.30;99.90;;;;;;5058491;28;20037;-67
2023/01/23 11:08:23;;;;;;;6.50;3.22;;;4.40;99.90;;;;;;5049704;28;20508;-67
2023/01/23 11:10:49;;;;;;;7.00;2.92;;;4.40;99.90;;;;;;5029515;28;20151;-67
2023/01/23 11:13:45;;;;;;;8.63;3.73;;;4.50;99.90;;;;;;5058056;28;20119;-68
2023/01/23 11:16:20;;;;;;;7.10;3.13;;;4.50;99.90;;;;;;5053479;28;20429;-67
2023/01/23 11:19:20;;;;;;;4.93;2.60;;;4.50;99.90;;;;;;5043018;28;20047;-67
2023/01/23 11:21:57;;;;;;;3.65;2.22;;;4.50;99.90;;;;;;5045331;28;20076;-67
2023/01/23 11:24:33;;;;;;;4.82;2.55;;;4.60;99.90;;;;;;5042579;28;20509;-67
2023/01/23 11:27:14;;;;;;;4.70;2.10;;;4.60;99.90;;;;;;5025086;28;20045;-67
2023/01/23 11:30:09;;;;;;;3.85;2.00;;;4.60;99.90;;;;;;5049502;28;20143;-67
2023/01/23 11:33:18;;;;;;;2.03;1.20;;;4.70;99.90;;;;;;5040043;28;20415;-67
2023/01/23 11:35:56;;;;;;;2.58;1.55;;;4.70;99.90;;;;;;4990074;28;20136;-68
2023/01/23 11:38:28;;;;;;;3.78;1.40;;;4.70;99.90;;;;;;5031982;28;20044;-67
2023/01/23 11:40:54;;;;;;;3.67;1.88;;;4.60;99.90;;;;;;5033763;28;20045;-66
2023/01/23 11:43:19;;;;;;;3.73;2.30;;;4.60;99.90;;;;;;5046104;28;20052;-67
2023/01/23 11:46:16;;;;;;;4.20;2.37;;;4.60;99.90;;;;;;5050453;28;20167;-67
2023/01/23 11:49:19;;;;;;;3.20;1.95;;;4.60;99.90;;;;;;5044679;28;20369;-67
2023/01/23 11:52:13;;;;;;;3.55;2.28;;;4.60;99.90;;;;;;5040626;28;20307;-67
2023/01/23 11:55:13;;;;;;;4.28;2.38;;;4.60;99.90;;;;;;5025558;28;20095;-67
2023/01/23 11:58:13;;;;;;;6.47;2.72;;;4.60;99.90;;;;;;5040331;28;20048;-67
2023/01/23 12:00:50;;;;;;;3.05;2.10;;;4.60;99.90;;;;;;5040219;28;20096;-67
2023/01/23 12:03:53;;;;;;;3.70;2.30;;;4.60;99.90;;;;;;5038963;28;20041;-67
2023/01/23 12:06:31;;;;;;;3.47;2.10;;;4.60;99.90;;;;;;5028304;28;20545;-67
2023/01/23 12:09:16;;;;;;;4.45;2.40;;;4.60;99.90;;;;;;5026128;28;20141;-68
2023/01/23 12:12:07;;;;;;;5.18;2.90;;;4.60;99.90;;;;;;5022581;28;20425;-67
2023/01/23 12:14:53;;;;;;;5.35;2.88;;;4.60;99.90;;;;;;5041127;28;20033;-68
2023/01/23 12:17:43;;;;;;;3.83;2.35;;;4.60;99.90;;;;;;5020751;28;20092;-69
2023/01/23 12:20:32;;;;;;;3.60;2.45;;;4.60;99.90;;;;;;5037408;28;20048;-68
2023/01/23 12:23:38;;;;;;;4.60;2.67;;;4.50;99.90;;;;;;5044629;28;20032;-68
2023/01/23 12:26:09;;;;;;;4.30;2.60;;;4.50;99.90;;;;;;5044627;28;20120;-68
2023/01/23 12:28:49;;;;;;;6.13;3.15;;;4.50;99.90;;;;;;5030750;28;20075;-68
2023/01/23 12:31:28;;;;;;;4.22;2.85;;;4.50;99.90;;;;;;5038722;28;20057;-68
2023/01/23 12:34:27;;;;;;;4.28;2.28;;;4.50;99.90;;;;;;5038449;28;20047;-68
2023/01/23 12:37:01;;;;;;;4.82;2.83;;;4.50;99.90;;;;;;5034126;28;20044;-67
2023/01/23 12:39:36;;;;;;;5.43;2.70;;;4.40;99.90;;;;;;5048316;28;20041;-68
2023/01/23 12:42:07;;;;;;;4.88;3.25;;;4.50;99.90;;;;;;5038751;28;20084;-67
2023/01/23 12:44:37;;;;;;;5.10;3.05;;;4.40;99.90;;;;;;5028887;28;20047;-67
2023/01/23 12:47:17;;;;;;;4.38;2.78;;;4.50;99.90;;;;;;5030998;28;20120;-68
2023/01/23 12:49:51;;;;;;;4.95;2.78;;;4.40;99.90;;;;;;5042746;28;20106;-67
2023/01/23 12:52:32;;;;;;;4.78;2.80;;;4.40;99.90;;;;;;5044086;28;20053;-68
2023/01/23 12:55:14;;;;;;;4.78;3.00;;;4.40;99.90;;;;;;5026771;28;20046;-68
2023/01/23 12:57:50;;;;;;;5.22;3.05;;;4.40;99.90;;;;;;5041815;28;20047;-67
2023/01/23 13:02:46;;;;;;;5.78;2.88;;;4.40;99.90;;;;;;5067683;28;20056;-69
2023/01/23 13:05:23;;;;;;;5.78;2.70;;;4.40;99.90;;;;;;5066406;28;20057;-69
2023/01/23 13:08:02;;;;;;;4.32;2.85;;;4.40;99.90;;;;;;5071641;28;20044;-69
2023/01/23 13:13:50;;;;;;;7.55;3.13;;;4.40;99.90;;;;;;5054630;28;20529;-69
2023/01/23 13:16:21;;;;;;;4.70;2.60;;;4.40;99.90;;;;;;5062203;28;20059;-69
2023/01/23 13:22:11;;;;;;;5.32;3.03;;;4.30;99.90;;;;;;5050793;28;20341;-69
2023/01/23 13:25:22;;;;;;;6.90;3.20;;;4.30;99.90;;;;;;5056168;28;20509;-69
2023/01/23 13:27:54;;;;;;;10.27;4.55;;;4.30;99.90;;;;;;5044168;28;20550;-69
2023/01/23 13:30:25;;;;;;;5.75;3.30;;;4.30;99.90;;;;;;5051369;28;20044;-69
2023/01/23 13:32:51;;;;;;;5.55;2.38;;;4.30;99.90;;;;;;5060837;28;20040;-69